sensor_id;sensor_type;location;lat;lon;timestamp;temperature;humidity
48994;DHT22;34804;49.214;12.276;2023-07-13T00:00:47;19.30;91.30
48994;DHT22;34804;49.214;12.276;2023-07-13T00:03:15;19.20;91.50
48994;DHT22;34804;49.214;12.276;2023-07-13T00:05:42;19.20;91.50
48994;DHT22;34804;49.214;12.276;2023-07-13T00:08:09;19.20;91.30
48994;DHT22;34804;49.214;12.276;2023-07-13T00:10:41;19.20;90.80
48994;DHT22;34804;49.214;12.276;2023-07-13T00:13:08;19.20;91.10
48994;DHT22;34804;49.214;12.276;2023-07-13T00:15:35;19.10;91.10
48994;DHT22;34804;49.214;12.276;2023-07-13T00:18:03;19.10;91.10
48994;DHT22;34804;49.214;12.276;2023-07-13T00:20:30;19.10;91.10
48994;DHT22;34804;49.214;12.276;2023-07-13T00:22:57;19.10;90.90
48994;DHT22;34804;49.214;12.276;2023-07-13T00:25:24;19.20;90.90
48994;DHT22;34804;49.214;12.276;2023-07-13T00:27:54;19.10;90.90
48994;DHT22;34804;49.214;12.276;2023-07-13T00:30:22;19.10;90.90
48994;DHT22;34804;49.214;12.276;2023-07-13T00:32:49;19.00;91.00
48994;DHT22;34804;49.214;12.276;2023-07-13T00:35:31;19.00;91.00
48994;DHT22;34804;49.214;12.276;2023-07-13T00:37:58;18.90;91.00
48994;DHT22;34804;49.214;12.276;2023-07-13T00:40:25;19.00;91.00
48994;DHT22;34804;49.214;12.276;2023-07-13T00:42:53;18.90;90.90
48994;DHT22;34804;49.214;12.276;2023-07-13T00:47:47;19.00;90.70
48994;DHT22;34804;49.214;12.276;2023-07-13T00:50:16;19.00;90.50
48994;DHT22;34804;49.214;12.276;2023-07-13T00:52:47;19.10;90.50
48994;DHT22;34804;49.214;12.276;2023-07-13T00:55:15;19.10;90.50
48994;DHT22;34804;49.214;12.276;2023-07-13T00:57:44;19.20;90.40
48994;DHT22;34804;49.214;12.276;2023-07-13T01:00:11;19.20;90.50
48994;DHT22;34804;49.214;12.276;2023-07-13T01:02:40;19.20;90.50
48994;DHT22;34804;49.214;12.276;2023-07-13T01:05:13;19.20;90.50
48994;DHT22;34804;49.214;12.276;2023-07-13T01:07:42;19.20;90.90
48994;DHT22;34804;49.214;12.276;2023-07-13T01:10:12;19.20;90.50
48994;DHT22;34804;49.214;12.276;2023-07-13T01:12:39;19.20;90.40
48994;DHT22;34804;49.214;12.276;2023-07-13T01:15:43;19.20;90.20
48994;DHT22;34804;49.214;12.276;2023-07-13T01:18:13;19.30;90.30
48994;DHT22;34804;49.214;12.276;2023-07-13T01:20:48;19.20;90.30
48994;DHT22;34804;49.214;12.276;2023-07-13T01:23:16;19.20;90.10
48994;DHT22;34804;49.214;12.276;2023-07-13T01:25:43;19.20;89.80
48994;DHT22;34804;49.214;12.276;2023-07-13T01:28:10;19.20;89.60
48994;DHT22;34804;49.214;12.276;2023-07-13T01:30:38;19.20;89.80
48994;DHT22;34804;49.214;12.276;2023-07-13T01:33:08;19.00;89.80
48994;DHT22;34804;49.214;12.276;2023-07-13T01:35:36;19.10;89.70
48994;DHT22;34804;49.214;12.276;2023-07-13T01:38:04;19.10;89.50
48994;DHT22;34804;49.214;12.276;2023-07-13T01:40:31;19.10;89.50
48994;DHT22;34804;49.214;12.276;2023-07-13T01:42:59;19.10;89.40
48994;DHT22;34804;49.214;12.276;2023-07-13T01:45:26;19.10;89.50
48994;DHT22;34804;49.214;12.276;2023-07-13T01:47:53;19.00;89.60
48994;DHT22;34804;49.214;12.276;2023-07-13T01:50:20;19.00;89.60
48994;DHT22;34804;49.214;12.276;2023-07-13T01:52:49;19.00;89.90
48994;DHT22;34804;49.214;12.276;2023-07-13T01:55:16;19.00;90.30
48994;DHT22;34804;49.214;12.276;2023-07-13T01:57:44;18.90;90.30
48994;DHT22;34804;49.214;12.276;2023-07-13T02:00:12;18.90;90.40
48994;DHT22;34804;49.214;12.276;2023-07-13T02:02:40;18.80;90.40
48994;DHT22;34804;49.214;12.276;2023-07-13T02:05:12;18.80;90.80
48994;DHT22;34804;49.214;12.276;2023-07-13T02:07:40;18.80;90.80
48994;DHT22;34804;49.214;12.276;2023-07-13T02:10:08;18.80;90.90
48994;DHT22;34804;49.214;12.276;2023-07-13T02:12:36;18.80;90.50
48994;DHT22;34804;49.214;12.276;2023-07-13T02:15:04;18.70;90.30
48994;DHT22;34804;49.214;12.276;2023-07-13T02:17:33;18.80;90.50
48994;DHT22;34804;49.214;12.276;2023-07-13T02:20:00;18.70;90.60
48994;DHT22;34804;49.214;12.276;2023-07-13T02:22:30;18.70;90.80
48994;DHT22;34804;49.214;12.276;2023-07-13T02:24:57;18.70;90.80
48994;DHT22;34804;49.214;12.276;2023-07-13T02:27:24;18.70;90.90
48994;DHT22;34804;49.214;12.276;2023-07-13T02:29:52;18.60;91.00
48994;DHT22;34804;49.214;12.276;2023-07-13T02:32:20;18.50;90.80
48994;DHT22;34804;49.214;12.276;2023-07-13T02:34:47;18.50;90.90
48994;DHT22;34804;49.214;12.276;2023-07-13T02:37:13;18.50;91.00
48994;DHT22;34804;49.214;12.276;2023-07-13T02:39:41;18.40;90.90
48994;DHT22;34804;49.214;12.276;2023-07-13T02:42:08;18.30;91.50
48994;DHT22;34804;49.214;12.276;2023-07-13T02:44:35;18.30;91.30
48994;DHT22;34804;49.214;12.276;2023-07-13T02:47:02;18.30;91.10
48994;DHT22;34804;49.214;12.276;2023-07-13T02:49:29;18.20;91.20
48994;DHT22;34804;49.214;12.276;2023-07-13T02:51:56;18.10;91.60
48994;DHT22;34804;49.214;12.276;2023-07-13T02:54:23;18.10;91.80
48994;DHT22;34804;49.214;12.276;2023-07-13T02:56:50;18.10;91.40
48994;DHT22;34804;49.214;12.276;2023-07-13T02:59:17;18.10;91.80
48994;DHT22;34804;49.214;12.276;2023-07-13T03:01:43;18.00;91.50
48994;DHT22;34804;49.214;12.276;2023-07-13T03:04:10;18.00;91.70
48994;DHT22;34804;49.214;12.276;2023-07-13T03:06:39;17.90;91.60
48994;DHT22;34804;49.214;12.276;2023-07-13T03:09:06;17.90;91.50
48994;DHT22;34804;49.214;12.276;2023-07-13T03:11:32;17.80;91.60
48994;DHT22;34804;49.214;12.276;2023-07-13T03:13:59;17.80;91.90
48994;DHT22;34804;49.214;12.276;2023-07-13T03:16:27;17.70;91.90
48994;DHT22;34804;49.214;12.276;2023-07-13T03:18:54;17.70;92.10
48994;DHT22;34804;49.214;12.276;2023-07-13T03:21:21;17.60;92.10
48994;DHT22;34804;49.214;12.276;2023-07-13T03:23:48;17.60;92.20
48994;DHT22;34804;49.214;12.276;2023-07-13T03:26:17;17.50;92.30
48994;DHT22;34804;49.214;12.276;2023-07-13T03:28:45;17.50;92.30
48994;DHT22;34804;49.214;12.276;2023-07-13T03:31:17;17.50;92.60
48994;DHT22;34804;49.214;12.276;2023-07-13T03:33:46;17.50;92.80
48994;DHT22;34804;49.214;12.276;2023-07-13T03:36:16;17.50;93.10
48994;DHT22;34804;49.214;12.276;2023-07-13T03:38:52;17.50;93.30
48994;DHT22;34804;49.214;12.276;2023-07-13T03:41:21;17.50;93.30
48994;DHT22;34804;49.214;12.276;2023-07-13T03:43:48;17.50;93.30
48994;DHT22;34804;49.214;12.276;2023-07-13T03:46:15;17.50;93.10
48994;DHT22;34804;49.214;12.276;2023-07-13T03:48:45;17.40;93.00
48994;DHT22;34804;49.214;12.276;2023-07-13T03:51:14;17.40;93.00
48994;DHT22;34804;49.214;12.276;2023-07-13T03:53:43;17.40;93.00
48994;DHT22;34804;49.214;12.276;2023-07-13T03:56:10;17.40;92.80
48994;DHT22;34804;49.214;12.276;2023-07-13T03:58:39;17.40;93.10
48994;DHT22;34804;49.214;12.276;2023-07-13T04:01:08;17.40;93.00
48994;DHT22;34804;49.214;12.276;2023-07-13T04:03:36;17.40;93.00
48994;DHT22;34804;49.214;12.276;2023-07-13T04:06:06;17.40;93.10
48994;DHT22;34804;49.214;12.276;2023-07-13T04:08:35;17.40;93.20
48994;DHT22;34804;49.214;12.276;2023-07-13T04:11:05;17.40;93.10
48994;DHT22;34804;49.214;12.276;2023-07-13T04:13:32;17.40;93.00
48994;DHT22;34804;49.214;12.276;2023-07-13T04:16:00;17.40;93.00
48994;DHT22;34804;49.214;12.276;2023-07-13T04:18:27;17.50;92.90
48994;DHT22;34804;49.214;12.276;2023-07-13T04:20:55;17.50;92.50
48994;DHT22;34804;49.214;12.276;2023-07-13T04:23:22;17.50;92.50
48994;DHT22;34804;49.214;12.276;2023-07-13T04:25:52;17.50;92.40
48994;DHT22;34804;49.214;12.276;2023-07-13T04:28:22;17.60;92.30
48994;DHT22;34804;49.214;12.276;2023-07-13T04:30:50;17.60;92.10
48994;DHT22;34804;49.214;12.276;2023-07-13T04:33:18;17.70;92.00
48994;DHT22;34804;49.214;12.276;2023-07-13T04:35:54;17.80;92.10
48994;DHT22;34804;49.214;12.276;2023-07-13T04:38:24;17.80;92.10
48994;DHT22;34804;49.214;12.276;2023-07-13T04:40:51;17.90;92.20
48994;DHT22;34804;49.214;12.276;2023-07-13T04:43:19;18.00;91.70
48994;DHT22;34804;49.214;12.276;2023-07-13T04:45:45;18.10;91.80
48994;DHT22;34804;49.214;12.276;2023-07-13T04:48:12;18.20;91.90
48994;DHT22;34804;49.214;12.276;2023-07-13T04:50:40;18.30;91.80
48994;DHT22;34804;49.214;12.276;2023-07-13T04:53:07;18.40;91.90
48994;DHT22;34804;49.214;12.276;2023-07-13T04:55:34;18.40;91.60
48994;DHT22;34804;49.214;12.276;2023-07-13T04:58:01;18.50;91.50
48994;DHT22;34804;49.214;12.276;2023-07-13T05:00:29;18.60;91.20
48994;DHT22;34804;49.214;12.276;2023-07-13T05:02:57;18.70;91.40
48994;DHT22;34804;49.214;12.276;2023-07-13T05:05:26;18.70;91.30
48994;DHT22;34804;49.214;12.276;2023-07-13T05:07:53;18.80;91.30
48994;DHT22;34804;49.214;12.276;2023-07-13T05:10:21;18.80;91.00
48994;DHT22;34804;49.214;12.276;2023-07-13T05:12:48;18.80;90.70
48994;DHT22;34804;49.214;12.276;2023-07-13T05:15:15;18.80;90.80
48994;DHT22;34804;49.214;12.276;2023-07-13T05:17:42;18.80;90.30
48994;DHT22;34804;49.214;12.276;2023-07-13T05:20:09;18.80;88.10
48994;DHT22;34804;49.214;12.276;2023-07-13T05:22:36;18.80;87.00
48994;DHT22;34804;49.214;12.276;2023-07-13T05:25:07;18.70;86.90
48994;DHT22;34804;49.214;12.276;2023-07-13T05:27:34;18.70;86.70
48994;DHT22;34804;49.214;12.276;2023-07-13T05:30:02;18.50;86.70
48994;DHT22;34804;49.214;12.276;2023-07-13T05:32:30;18.50;85.80
48994;DHT22;34804;49.214;12.276;2023-07-13T05:34:57;18.40;85.90
48994;DHT22;34804;49.214;12.276;2023-07-13T05:37:24;18.40;85.90
48994;DHT22;34804;49.214;12.276;2023-07-13T05:39:51;18.30;86.10
48994;DHT22;34804;49.214;12.276;2023-07-13T05:42:18;18.40;86.70
48994;DHT22;34804;49.214;12.276;2023-07-13T05:44:45;18.60;85.80
48994;DHT22;34804;49.214;12.276;2023-07-13T05:47:12;18.80;86.20
48994;DHT22;34804;49.214;12.276;2023-07-13T05:49:41;18.80;83.30
48994;DHT22;34804;49.214;12.276;2023-07-13T05:52:08;19.10;85.10
48994;DHT22;34804;49.214;12.276;2023-07-13T05:54:35;19.10;82.60
48994;DHT22;34804;49.214;12.276;2023-07-13T05:57:02;19.20;82.20
48994;DHT22;34804;49.214;12.276;2023-07-13T05:59:29;19.30;79.80
48994;DHT22;34804;49.214;12.276;2023-07-13T06:01:56;19.30;79.90
48994;DHT22;34804;49.214;12.276;2023-07-13T06:04:23;19.30;79.50
48994;DHT22;34804;49.214;12.276;2023-07-13T06:06:50;19.40;77.60
48994;DHT22;34804;49.214;12.276;2023-07-13T06:09:17;19.40;76.90
48994;DHT22;34804;49.214;12.276;2023-07-13T06:11:44;19.40;78.50
48994;DHT22;34804;49.214;12.276;2023-07-13T06:14:11;19.50;78.00
48994;DHT22;34804;49.214;12.276;2023-07-13T06:16:40;19.50;79.20
48994;DHT22;34804;49.214;12.276;2023-07-13T06:19:08;19.40;79.80
48994;DHT22;34804;49.214;12.276;2023-07-13T06:21:35;19.30;78.90
48994;DHT22;34804;49.214;12.276;2023-07-13T06:24:02;19.20;80.00
48994;DHT22;34804;49.214;12.276;2023-07-13T06:26:29;19.20;79.80
48994;DHT22;34804;49.214;12.276;2023-07-13T06:28:57;19.30;80.10
48994;DHT22;34804;49.214;12.276;2023-07-13T06:31:24;19.60;80.70
48994;DHT22;34804;49.214;12.276;2023-07-13T06:33:51;19.80;80.00
48994;DHT22;34804;49.214;12.276;2023-07-13T06:36:18;20.00;78.30
48994;DHT22;34804;49.214;12.276;2023-07-13T06:38:45;20.10;77.70
48994;DHT22;34804;49.214;12.276;2023-07-13T06:41:12;20.20;75.10
48994;DHT22;34804;49.214;12.276;2023-07-13T06:43:40;20.10;74.90
48994;DHT22;34804;49.214;12.276;2023-07-13T06:46:07;20.00;75.70
48994;DHT22;34804;49.214;12.276;2023-07-13T06:48:33;19.90;76.00
48994;DHT22;34804;49.214;12.276;2023-07-13T06:51:01;19.90;75.50
48994;DHT22;34804;49.214;12.276;2023-07-13T06:53:29;19.80;75.50
48994;DHT22;34804;49.214;12.276;2023-07-13T06:55:56;19.80;78.00
48994;DHT22;34804;49.214;12.276;2023-07-13T06:58:22;19.80;76.10
48994;DHT22;34804;49.214;12.276;2023-07-13T07:00:52;19.90;75.20
48994;DHT22;34804;49.214;12.276;2023-07-13T07:03:19;20.20;74.50
48994;DHT22;34804;49.214;12.276;2023-07-13T07:05:46;20.20;73.70
48994;DHT22;34804;49.214;12.276;2023-07-13T07:08:14;20.30;73.10
48994;DHT22;34804;49.214;12.276;2023-07-13T07:10:42;20.50;73.20
48994;DHT22;34804;49.214;12.276;2023-07-13T07:13:09;20.70;71.80
48994;DHT22;34804;49.214;12.276;2023-07-13T07:15:36;20.80;70.90
48994;DHT22;34804;49.214;12.276;2023-07-13T07:18:03;20.80;71.00
48994;DHT22;34804;49.214;12.276;2023-07-13T07:20:30;21.00;71.90
48994;DHT22;34804;49.214;12.276;2023-07-13T07:22:59;21.10;68.30
48994;DHT22;34804;49.214;12.276;2023-07-13T07:25:26;21.40;68.00
48994;DHT22;34804;49.214;12.276;2023-07-13T07:27:53;21.20;67.80
48994;DHT22;34804;49.214;12.276;2023-07-13T07:30:23;21.30;68.00
48994;DHT22;34804;49.214;12.276;2023-07-13T07:32:53;21.40;68.90
48994;DHT22;34804;49.214;12.276;2023-07-13T07:35:23;21.30;66.90
48994;DHT22;34804;49.214;12.276;2023-07-13T07:37:50;21.50;68.80
48994;DHT22;34804;49.214;12.276;2023-07-13T07:40:18;21.60;66.60
48994;DHT22;34804;49.214;12.276;2023-07-13T07:42:48;21.60;66.90
48994;DHT22;34804;49.214;12.276;2023-07-13T07:45:15;21.90;67.10
48994;DHT22;34804;49.214;12.276;2023-07-13T07:47:42;21.90;65.10
48994;DHT22;34804;49.214;12.276;2023-07-13T07:50:10;21.80;67.10
48994;DHT22;34804;49.214;12.276;2023-07-13T07:52:37;21.50;68.40
48994;DHT22;34804;49.214;12.276;2023-07-13T07:55:06;21.30;67.00
48994;DHT22;34804;49.214;12.276;2023-07-13T07:57:36;21.40;68.10
48994;DHT22;34804;49.214;12.276;2023-07-13T08:00:09;21.70;66.90
48994;DHT22;34804;49.214;12.276;2023-07-13T08:02:39;21.80;65.50
48994;DHT22;34804;49.214;12.276;2023-07-13T08:05:28;21.90;63.40
48994;DHT22;34804;49.214;12.276;2023-07-13T08:07:58;22.00;64.20
48994;DHT22;34804;49.214;12.276;2023-07-13T08:10:25;22.20;64.90
48994;DHT22;34804;49.214;12.276;2023-07-13T08:12:52;22.40;62.30
48994;DHT22;34804;49.214;12.276;2023-07-13T08:15:23;22.40;62.60
48994;DHT22;34804;49.214;12.276;2023-07-13T08:17:50;22.50;61.40
48994;DHT22;34804;49.214;12.276;2023-07-13T08:20:18;22.50;60.40
48994;DHT22;34804;49.214;12.276;2023-07-13T08:22:45;22.70;60.30
48994;DHT22;34804;49.214;12.276;2023-07-13T08:25:13;23.00;55.80
48994;DHT22;34804;49.214;12.276;2023-07-13T08:27:40;23.20;56.40
48994;DHT22;34804;49.214;12.276;2023-07-13T08:30:07;23.30;54.80
48994;DHT22;34804;49.214;12.276;2023-07-13T08:32:36;23.30;54.30
48994;DHT22;34804;49.214;12.276;2023-07-13T08:35:04;23.30;56.60
48994;DHT22;34804;49.214;12.276;2023-07-13T08:37:31;23.50;51.80
48994;DHT22;34804;49.214;12.276;2023-07-13T08:39:58;23.70;51.20
48994;DHT22;34804;49.214;12.276;2023-07-13T08:42:40;23.70;53.50
48994;DHT22;34804;49.214;12.276;2023-07-13T08:47:51;23.90;52.10
48994;DHT22;34804;49.214;12.276;2023-07-13T08:50:25;24.10;47.00
48994;DHT22;34804;49.214;12.276;2023-07-13T08:52:55;24.10;50.70
48994;DHT22;34804;49.214;12.276;2023-07-13T08:55:27;24.00;49.50
48994;DHT22;34804;49.214;12.276;2023-07-13T08:58:22;24.20;50.50
48994;DHT22;34804;49.214;12.276;2023-07-13T09:01:02;24.10;50.80
48994;DHT22;34804;49.214;12.276;2023-07-13T09:03:51;23.90;47.60
48994;DHT22;34804;49.214;12.276;2023-07-13T09:06:23;24.10;45.30
48994;DHT22;34804;49.214;12.276;2023-07-13T09:09:01;24.20;46.30
48994;DHT22;34804;49.214;12.276;2023-07-13T09:11:51;24.50;48.50
48994;DHT22;34804;49.214;12.276;2023-07-13T09:16:53;24.60;47.90
48994;DHT22;34804;49.214;12.276;2023-07-13T09:19:27;24.30;46.00
48994;DHT22;34804;49.214;12.276;2023-07-13T09:21:56;24.10;45.10
48994;DHT22;34804;49.214;12.276;2023-07-13T09:24:55;24.00;48.80
48994;DHT22;34804;49.214;12.276;2023-07-13T09:27:29;23.70;46.30
48994;DHT22;34804;49.214;12.276;2023-07-13T09:29:58;23.40;49.80
48994;DHT22;34804;49.214;12.276;2023-07-13T09:32:29;23.50;46.90
48994;DHT22;34804;49.214;12.276;2023-07-13T09:34:57;23.50;45.90
48994;DHT22;34804;49.214;12.276;2023-07-13T09:37:31;23.50;46.70
48994;DHT22;34804;49.214;12.276;2023-07-13T09:40:01;23.40;44.60
48994;DHT22;34804;49.214;12.276;2023-07-13T09:42:32;23.60;46.00
48994;DHT22;34804;49.214;12.276;2023-07-13T09:45:01;23.80;45.60
48994;DHT22;34804;49.214;12.276;2023-07-13T09:47:39;24.00;45.30
48994;DHT22;34804;49.214;12.276;2023-07-13T09:50:14;24.40;44.90
48994;DHT22;34804;49.214;12.276;2023-07-13T09:52:47;24.50;42.40
48994;DHT22;34804;49.214;12.276;2023-07-13T09:55:35;24.60;47.00
48994;DHT22;34804;49.214;12.276;2023-07-13T09:58:12;24.50;43.70
48994;DHT22;34804;49.214;12.276;2023-07-13T10:00:44;24.80;45.90
48994;DHT22;34804;49.214;12.276;2023-07-13T10:03:29;24.80;43.80
48994;DHT22;34804;49.214;12.276;2023-07-13T10:06:03;24.80;47.60
48994;DHT22;34804;49.214;12.276;2023-07-13T10:08:35;24.70;47.00
48994;DHT22;34804;49.214;12.276;2023-07-13T10:11:22;24.80;42.30
48994;DHT22;34804;49.214;12.276;2023-07-13T10:14:01;24.80;44.10
48994;DHT22;34804;49.214;12.276;2023-07-13T10:16:33;25.30;46.60
48994;DHT22;34804;49.214;12.276;2023-07-13T10:24:26;25.70;43.70
48994;DHT22;34804;49.214;12.276;2023-07-13T10:27:15;25.80;45.10
48994;DHT22;34804;49.214;12.276;2023-07-13T10:30:11;26.00;46.40
48994;DHT22;34804;49.214;12.276;2023-07-13T10:32:43;26.60;41.70
48994;DHT22;34804;49.214;12.276;2023-07-13T10:35:14;26.60;41.40
48994;DHT22;34804;49.214;12.276;2023-07-13T10:38:04;26.30;40.50
48994;DHT22;34804;49.214;12.276;2023-07-13T10:43:09;25.80;42.10
48994;DHT22;34804;49.214;12.276;2023-07-13T10:45:47;25.90;42.60
48994;DHT22;34804;49.214;12.276;2023-07-13T10:48:17;25.80;42.40
48994;DHT22;34804;49.214;12.276;2023-07-13T10:50:48;25.70;41.80
48994;DHT22;34804;49.214;12.276;2023-07-13T10:53:20;25.50;42.00
48994;DHT22;34804;49.214;12.276;2023-07-13T10:58:35;25.40;42.90
48994;DHT22;34804;49.214;12.276;2023-07-13T11:03:35;25.10;44.10
48994;DHT22;34804;49.214;12.276;2023-07-13T11:06:12;25.30;46.00
48994;DHT22;34804;49.214;12.276;2023-07-13T11:21:30;25.50;42.80
48994;DHT22;34804;49.214;12.276;2023-07-13T11:24:04;25.70;42.10
48994;DHT22;34804;49.214;12.276;2023-07-13T11:26:50;26.00;40.10
48994;DHT22;34804;49.214;12.276;2023-07-13T11:31:53;26.40;42.00
48994;DHT22;34804;49.214;12.276;2023-07-13T11:34:29;26.60;39.50
48994;DHT22;34804;49.214;12.276;2023-07-13T11:36:59;26.10;38.40
48994;DHT22;34804;49.214;12.276;2023-07-13T11:39:30;26.00;41.70
48994;DHT22;34804;49.214;12.276;2023-07-13T11:42:03;26.10;38.80
48994;DHT22;34804;49.214;12.276;2023-07-13T11:44:41;26.40;39.00
48994;DHT22;34804;49.214;12.276;2023-07-13T11:47:25;27.20;40.00
48994;DHT22;34804;49.214;12.276;2023-07-13T11:49:54;27.30;38.50
48994;DHT22;34804;49.214;12.276;2023-07-13T11:52:30;27.20;34.70
48994;DHT22;34804;49.214;12.276;2023-07-13T11:55:03;27.30;34.80
48994;DHT22;34804;49.214;12.276;2023-07-13T11:57:33;27.40;36.80
48994;DHT22;34804;49.214;12.276;2023-07-13T12:00:09;27.80;36.50
48994;DHT22;34804;49.214;12.276;2023-07-13T12:02:42;27.40;31.30
48994;DHT22;34804;49.214;12.276;2023-07-13T12:05:12;27.30;34.90
48994;DHT22;34804;49.214;12.276;2023-07-13T12:07:40;27.40;33.10
48994;DHT22;34804;49.214;12.276;2023-07-13T12:12:56;27.80;31.30
48994;DHT22;34804;49.214;12.276;2023-07-13T12:15:26;27.40;30.30
48994;DHT22;34804;49.214;12.276;2023-07-13T12:17:56;27.00;31.10
48994;DHT22;34804;49.214;12.276;2023-07-13T12:20:26;27.50;32.90
48994;DHT22;34804;49.214;12.276;2023-07-13T12:22:54;27.80;35.80
48994;DHT22;34804;49.214;12.276;2023-07-13T12:25:22;28.30;34.10
48994;DHT22;34804;49.214;12.276;2023-07-13T12:27:51;28.70;30.90
48994;DHT22;34804;49.214;12.276;2023-07-13T12:30:30;28.10;29.00
48994;DHT22;34804;49.214;12.276;2023-07-13T12:33:11;27.20;30.20
48994;DHT22;34804;49.214;12.276;2023-07-13T12:35:47;27.20;31.00
48994;DHT22;34804;49.214;12.276;2023-07-13T12:38:16;27.50;33.70
48994;DHT22;34804;49.214;12.276;2023-07-13T12:40:44;27.60;31.10
48994;DHT22;34804;49.214;12.276;2023-07-13T12:43:12;27.80;31.50
48994;DHT22;34804;49.214;12.276;2023-07-13T12:46:03;27.90;32.00
48994;DHT22;34804;49.214;12.276;2023-07-13T12:48:38;28.30;32.00
48994;DHT22;34804;49.214;12.276;2023-07-13T12:51:16;29.30;28.80
48994;DHT22;34804;49.214;12.276;2023-07-13T12:53:49;30.70;30.20
48994;DHT22;34804;49.214;12.276;2023-07-13T12:56:27;30.80;26.40
48994;DHT22;34804;49.214;12.276;2023-07-13T12:58:58;30.80;28.50
48994;DHT22;34804;49.214;12.276;2023-07-13T13:01:31;31.80;28.30
48994;DHT22;34804;49.214;12.276;2023-07-13T13:04:02;31.30;25.50
48994;DHT22;34804;49.214;12.276;2023-07-13T13:06:33;31.80;25.80
48994;DHT22;34804;49.214;12.276;2023-07-13T13:09:11;31.60;27.40
48994;DHT22;34804;49.214;12.276;2023-07-13T13:11:38;32.30;29.10
48994;DHT22;34804;49.214;12.276;2023-07-13T13:14:07;32.80;25.00
48994;DHT22;34804;49.214;12.276;2023-07-13T13:16:37;33.30;25.40
48994;DHT22;34804;49.214;12.276;2023-07-13T13:19:18;33.20;25.00
48994;DHT22;34804;49.214;12.276;2023-07-13T13:21:46;32.80;24.40
48994;DHT22;34804;49.214;12.276;2023-07-13T13:24:15;32.00;25.40
48994;DHT22;34804;49.214;12.276;2023-07-13T13:26:43;32.40;28.60
48994;DHT22;34804;49.214;12.276;2023-07-13T13:29:18;33.00;26.80
48994;DHT22;34804;49.214;12.276;2023-07-13T13:31:46;33.00;27.00
48994;DHT22;34804;49.214;12.276;2023-07-13T13:34:16;32.80;25.90
48994;DHT22;34804;49.214;12.276;2023-07-13T13:36:44;33.00;24.70
48994;DHT22;34804;49.214;12.276;2023-07-13T13:39:27;33.20;27.20
48994;DHT22;34804;49.214;12.276;2023-07-13T13:41:55;33.30;24.40
48994;DHT22;34804;49.214;12.276;2023-07-13T13:44:22;32.10;25.00
48994;DHT22;34804;49.214;12.276;2023-07-13T13:46:54;30.70;27.20
48994;DHT22;34804;49.214;12.276;2023-07-13T13:49:24;30.00;28.80
48994;DHT22;34804;49.214;12.276;2023-07-13T13:51:52;29.90;29.80
48994;DHT22;34804;49.214;12.276;2023-07-13T13:54:21;31.00;28.60
48994;DHT22;34804;49.214;12.276;2023-07-13T13:56:51;30.90;28.80
48994;DHT22;34804;49.214;12.276;2023-07-13T13:59:18;31.20;27.80
48994;DHT22;34804;49.214;12.276;2023-07-13T14:01:47;31.10;30.10
48994;DHT22;34804;49.214;12.276;2023-07-13T14:04:20;31.50;30.30
48994;DHT22;34804;49.214;12.276;2023-07-13T14:06:49;31.10;26.90
48994;DHT22;34804;49.214;12.276;2023-07-13T14:09:18;30.80;27.00
48994;DHT22;34804;49.214;12.276;2023-07-13T14:11:47;30.60;27.70
48994;DHT22;34804;49.214;12.276;2023-07-13T14:14:22;30.90;30.10
48994;DHT22;34804;49.214;12.276;2023-07-13T14:16:51;31.10;27.30
48994;DHT22;34804;49.214;12.276;2023-07-13T14:19:22;31.30;26.10
48994;DHT22;34804;49.214;12.276;2023-07-13T14:21:49;31.00;27.40
48994;DHT22;34804;49.214;12.276;2023-07-13T14:24:16;31.60;28.00
48994;DHT22;34804;49.214;12.276;2023-07-13T14:26:46;32.80;27.00
48994;DHT22;34804;49.214;12.276;2023-07-13T14:29:15;33.00;26.40
48994;DHT22;34804;49.214;12.276;2023-07-13T14:31:47;32.40;27.00
48994;DHT22;34804;49.214;12.276;2023-07-13T14:34:15;32.00;27.60
48994;DHT22;34804;49.214;12.276;2023-07-13T14:36:44;31.20;26.50
48994;DHT22;34804;49.214;12.276;2023-07-13T14:41:40;29.50;27.70
48994;DHT22;34804;49.214;12.276;2023-07-13T14:44:14;29.90;28.70
48994;DHT22;34804;49.214;12.276;2023-07-13T14:46:42;31.30;27.10
48994;DHT22;34804;49.214;12.276;2023-07-13T14:49:50;31.50;29.20
48994;DHT22;34804;49.214;12.276;2023-07-13T14:52:27;31.90;27.90
48994;DHT22;34804;49.214;12.276;2023-07-13T14:54:54;32.80;28.10
48994;DHT22;34804;49.214;12.276;2023-07-13T14:57:22;33.80;25.60
48994;DHT22;34804;49.214;12.276;2023-07-13T14:59:49;34.00;25.50
48994;DHT22;34804;49.214;12.276;2023-07-13T15:02:29;34.90;26.50
48994;DHT22;34804;49.214;12.276;2023-07-13T15:04:57;34.50;24.00
48994;DHT22;34804;49.214;12.276;2023-07-13T15:07:25;34.20;26.00
48994;DHT22;34804;49.214;12.276;2023-07-13T15:09:52;34.40;23.70
48994;DHT22;34804;49.214;12.276;2023-07-13T15:12:19;33.50;24.60
48994;DHT22;34804;49.214;12.276;2023-07-13T15:14:47;31.60;27.10
48994;DHT22;34804;49.214;12.276;2023-07-13T15:17:35;30.30;29.20
48994;DHT22;34804;49.214;12.276;2023-07-13T15:20:21;30.80;27.20
48994;DHT22;34804;49.214;12.276;2023-07-13T15:22:51;30.30;29.20
48994;DHT22;34804;49.214;12.276;2023-07-13T15:25:26;29.90;28.20
48994;DHT22;34804;49.214;12.276;2023-07-13T15:27:55;30.80;29.40
48994;DHT22;34804;49.214;12.276;2023-07-13T15:30:27;32.00;28.40
48994;DHT22;34804;49.214;12.276;2023-07-13T15:32:57;32.40;26.80
48994;DHT22;34804;49.214;12.276;2023-07-13T15:35:27;32.00;26.70
48994;DHT22;34804;49.214;12.276;2023-07-13T15:37:54;31.10;28.60
48994;DHT22;34804;49.214;12.276;2023-07-13T15:40:23;30.20;28.50
48994;DHT22;34804;49.214;12.276;2023-07-13T15:42:52;28.90;29.80
48994;DHT22;34804;49.214;12.276;2023-07-13T15:45:23;28.00;30.60
48994;DHT22;34804;49.214;12.276;2023-07-13T15:47:51;27.60;32.70
48994;DHT22;34804;49.214;12.276;2023-07-13T15:50:24;27.80;34.30
48994;DHT22;34804;49.214;12.276;2023-07-13T15:52:55;29.00;31.30
48994;DHT22;34804;49.214;12.276;2023-07-13T15:55:24;29.70;31.10
48994;DHT22;34804;49.214;12.276;2023-07-13T15:57:52;29.10;29.30
48994;DHT22;34804;49.214;12.276;2023-07-13T16:00:22;28.30;31.90
48994;DHT22;34804;49.214;12.276;2023-07-13T16:02:50;27.70;33.10
48994;DHT22;34804;49.214;12.276;2023-07-13T16:05:18;27.60;33.00
48994;DHT22;34804;49.214;12.276;2023-07-13T16:07:47;28.80;30.90
48994;DHT22;34804;49.214;12.276;2023-07-13T16:10:30;29.00;31.10
48994;DHT22;34804;49.214;12.276;2023-07-13T16:12:58;29.30;30.60
48994;DHT22;34804;49.214;12.276;2023-07-13T16:15:25;29.80;30.00